createdAt,value
2023-04-06T00:02:29.653Z,68.88
2023-04-06T00:05:01.939Z,68.76
2023-04-06T00:07:35.149Z,68.75
2023-04-06T00:10:08.649Z,68.65
2023-04-06T00:12:40.758Z,68.80
2023-04-06T00:15:14.106Z,68.57
2023-04-06T00:17:46.222Z,68.60
2023-04-06T00:20:21.410Z,68.81
2023-04-06T00:22:53.449Z,68.70
2023-04-06T00:25:25.653Z,68.67
2023-04-06T00:28:00.788Z,68.75
2023-04-06T00:30:32.928Z,68.77
2023-04-06T00:33:06.399Z,68.95
2023-04-06T00:35:39.937Z,69.29
2023-04-06T00:38:16.587Z,69.23
2023-04-06T00:40:48.685Z,69.74
2023-04-06T00:43:20.790Z,69.95
2023-04-06T00:45:52.949Z,70.00
2023-04-06T00:48:25.149Z,69.86
2023-04-06T00:50:57.240Z,69.70
2023-04-06T00:53:29.479Z,69.92
2023-04-06T00:56:03.104Z,70.11
2023-04-06T00:58:40.108Z,70.01
2023-04-06T01:01:13.261Z,69.94
2023-04-06T01:03:49.691Z,70.11
2023-04-06T01:06:22.020Z,70.21
2023-04-06T01:09:01.743Z,69.96
2023-04-06T01:11:37.646Z,70.45
2023-04-06T01:14:11.222Z,70.22
2023-04-06T01:17:02.456Z,70.38
2023-04-06T01:19:38.348Z,70.76
2023-04-06T01:22:10.891Z,70.76
2023-04-06T01:25:03.272Z,70.59
2023-04-06T01:27:58.527Z,70.66
2023-04-06T01:30:47.536Z,70.67
2023-04-06T01:33:31.721Z,70.83
2023-04-06T01:36:10.544Z,71.02
2023-04-06T01:38:43.489Z,71.14
2023-04-06T01:41:16.162Z,71.11
2023-04-06T01:43:56.969Z,71.23
2023-04-06T01:46:34.982Z,71.34
2023-04-06T01:49:09.133Z,71.46
2023-04-06T01:51:43.535Z,71.43
2023-04-06T01:54:17.784Z,71.53
2023-04-06T01:57:01.311Z,71.57
2023-04-06T01:59:37.077Z,71.34
2023-04-06T02:02:14.145Z,71.32
2023-04-06T02:04:47.453Z,71.52
2023-04-06T02:07:19.700Z,71.54
2023-04-06T02:09:53.164Z,71.44
2023-04-06T02:12:29.526Z,71.37
2023-04-06T02:15:01.922Z,71.73
2023-04-06T02:17:35.516Z,71.78
2023-04-06T02:20:09.117Z,72.14
2023-04-06T02:22:41.268Z,72.08
2023-04-06T02:25:16.588Z,72.05
2023-04-06T02:27:48.700Z,72.14
2023-04-06T02:30:21.011Z,72.15
2023-04-06T02:32:54.189Z,71.92
2023-04-06T02:35:27.964Z,71.82
2023-04-06T02:38:00.904Z,72.05
2023-04-06T02:40:33.067Z,71.85
2023-04-06T02:43:09.809Z,71.92
2023-04-06T02:45:42.001Z,71.91
2023-04-06T02:48:15.057Z,71.93
2023-04-06T02:50:47.388Z,72.19
2023-04-06T02:53:19.604Z,72.32
2023-04-06T02:55:51.734Z,72.48
2023-04-06T02:58:23.853Z,72.61
2023-04-06T03:00:58.754Z,72.44
2023-04-06T03:03:31.321Z,72.47
2023-04-06T03:06:04.235Z,72.41
2023-04-06T03:08:36.846Z,72.49
2023-04-06T03:11:12.005Z,72.73
2023-04-06T03:13:47.334Z,72.51
2023-04-06T03:16:19.656Z,72.56
2023-04-06T03:18:51.811Z,72.49
2023-04-06T03:21:24.691Z,72.79
2023-04-06T03:23:57.871Z,72.70
2023-04-06T03:26:29.935Z,72.83
2023-04-06T03:29:03.350Z,72.96
2023-04-06T03:31:38.539Z,73.16
2023-04-06T03:34:13.828Z,73.01
2023-04-06T03:36:48.347Z,73.02
2023-04-06T03:39:23.925Z,73.05
2023-04-06T03:41:56.749Z,73.01
2023-04-06T03:44:35.676Z,72.93
2023-04-06T03:50:22.420Z,73.29
2023-04-06T03:52:54.502Z,73.47
2023-04-06T03:55:26.920Z,73.40
2023-04-06T03:57:59.219Z,73.21
2023-04-06T04:00:35.020Z,73.03
2023-04-06T04:03:07.358Z,73.42
2023-04-06T04:05:42.962Z,73.50
2023-04-06T04:08:15.715Z,73.79
2023-04-06T04:10:47.913Z,73.70
2023-04-06T04:13:20.038Z,73.68
2023-04-06T04:15:54.088Z,73.58
2023-04-06T04:18:26.269Z,73.78
2023-04-06T04:20:59.660Z,73.81
2023-04-06T04:23:33.246Z,74.09
2023-04-06T04:26:05.983Z,74.00
2023-04-06T04:28:38.194Z,74.18
2023-04-06T04:31:10.445Z,74.89
2023-04-06T04:33:42.691Z,74.56
2023-04-06T04:36:19.096Z,74.87
2023-04-06T04:38:53.517Z,74.75
2023-04-06T04:41:26.366Z,74.67
2023-04-06T04:44:04.460Z,74.74
2023-04-06T04:46:36.738Z,75.04
2023-04-06T04:49:10.247Z,75.10
2023-04-06T04:51:42.876Z,75.23
2023-04-06T04:54:30.512Z,75.39
2023-04-06T04:57:03.453Z,75.40
2023-04-06T04:59:55.418Z,75.49
2023-04-06T05:02:28.868Z,75.66
2023-04-06T05:05:17.808Z,76.13
2023-04-06T05:07:50.156Z,76.65
2023-04-06T05:10:43.977Z,76.31
2023-04-06T05:13:16.551Z,76.58
2023-04-06T05:15:50.293Z,76.58
2023-04-06T05:18:28.546Z,76.93
2023-04-06T05:21:01.203Z,77.33
2023-04-06T05:23:41.533Z,77.29
2023-04-06T05:26:14.072Z,77.69
2023-04-06T05:28:46.992Z,77.69
2023-04-06T05:31:19.647Z,77.47
2023-04-06T05:33:54.523Z,77.56
2023-04-06T05:36:36.182Z,77.59
2023-04-06T05:39:13.512Z,77.63
2023-04-06T05:41:56.208Z,77.56
2023-04-06T05:44:39.885Z,77.52
2023-04-06T05:47:17.067Z,77.47
2023-04-06T05:49:50.614Z,77.34
2023-04-06T05:52:29.168Z,77.41
2023-04-06T05:55:02.842Z,77.49
2023-04-06T05:57:36.278Z,77.64
2023-04-06T06:00:11.757Z,77.66
2023-04-06T06:02:47.180Z,77.69
2023-04-06T06:05:23.211Z,77.61
2023-04-06T06:07:56.047Z,77.52
2023-04-06T06:10:28.367Z,77.58
2023-04-06T06:13:00.985Z,77.78
2023-04-06T06:15:33.284Z,77.74
2023-04-06T06:18:05.698Z,77.42
2023-04-06T06:20:38.693Z,77.21
2023-04-06T06:23:11.353Z,77.17
2023-04-06T06:25:43.517Z,77.14
2023-04-06T06:28:16.271Z,77.03
2023-04-06T06:30:48.568Z,76.99
2023-04-06T06:33:23.898Z,76.99
2023-04-06T06:35:57.254Z,76.89
2023-04-06T06:38:29.603Z,76.84
2023-04-06T06:41:01.852Z,76.86
2023-04-06T06:43:35.954Z,76.68
2023-04-06T06:46:12.774Z,76.93
2023-04-06T06:48:45.834Z,76.70
2023-04-06T06:51:18.363Z,76.76
2023-04-06T06:53:51.913Z,76.49
2023-04-06T06:56:24.086Z,76.08
2023-04-06T06:58:56.924Z,76.21
2023-04-06T07:01:29.210Z,76.29
2023-04-06T07:04:04.461Z,76.34
2023-04-06T07:06:38.176Z,76.38
2023-04-06T07:09:13.669Z,76.45
2023-04-06T07:11:46.065Z,76.41
2023-04-06T07:14:18.401Z,76.37
2023-04-06T07:16:52.160Z,75.97
2023-04-06T07:19:24.296Z,75.85
2023-04-06T07:21:57.349Z,74.94
2023-04-06T07:24:29.571Z,74.47
2023-04-06T07:27:02.906Z,73.66
2023-04-06T07:29:35.337Z,73.50
2023-04-06T07:32:07.653Z,73.59
2023-04-06T07:34:40.399Z,73.42
2023-04-06T07:37:13.335Z,72.93
2023-04-06T07:39:47.994Z,72.71
2023-04-06T07:42:20.153Z,72.60
2023-04-06T07:44:53.315Z,73.01
2023-04-06T07:47:27.136Z,73.03
2023-04-06T07:53:23.681Z,72.97
2023-04-06T07:55:56.810Z,73.03
2023-04-06T07:58:28.902Z,72.73
2023-04-06T08:01:01.012Z,72.11
2023-04-06T08:03:35.826Z,71.80
2023-04-06T08:06:08.620Z,71.39
2023-04-06T08:08:40.750Z,71.04
2023-04-06T08:11:13.408Z,70.86
2023-04-06T08:13:45.816Z,70.84
2023-04-06T08:16:18.033Z,70.36
2023-04-06T08:18:50.573Z,69.90
2023-04-06T08:21:23.057Z,69.41
2023-04-06T08:23:55.275Z,69.46
2023-04-06T08:26:30.722Z,69.82
2023-04-06T08:29:05.092Z,69.71
2023-04-06T08:31:37.796Z,69.85
2023-04-06T08:34:12.215Z,69.25
2023-04-06T08:36:47.898Z,68.93
2023-04-06T08:39:25.079Z,68.09
2023-04-06T08:42:00.779Z,66.71
2023-04-06T08:44:34.166Z,66.72
2023-04-06T08:47:08.927Z,66.73
2023-04-06T08:49:41.516Z,67.33
2023-04-06T08:52:14.037Z,66.44
2023-04-06T08:54:46.114Z,66.87
2023-04-06T08:57:20.284Z,66.18
2023-04-06T08:59:53.536Z,65.97
2023-04-06T09:02:26.799Z,65.96
2023-04-06T09:05:02.283Z,65.18
2023-04-06T09:07:34.854Z,64.78
2023-04-06T09:10:08.158Z,64.11
2023-04-06T09:12:40.364Z,63.83
2023-04-06T09:15:24.606Z,63.59
2023-04-06T09:17:57.222Z,62.23
2023-04-06T09:20:30.495Z,64.56
2023-04-06T09:23:03.361Z,63.04
2023-04-06T09:25:35.567Z,61.63
2023-04-06T09:28:09.039Z,62.71
2023-04-06T09:30:51.654Z,61.35
2023-04-06T09:33:27.339Z,61.70
2023-04-06T09:35:59.516Z,61.22
2023-04-06T09:38:31.771Z,61.14
2023-04-06T09:41:03.853Z,60.54
2023-04-06T09:43:36.093Z,59.33
2023-04-06T09:46:09.859Z,59.87
2023-04-06T09:48:42.150Z,59.13
2023-04-06T09:51:17.549Z,58.62
2023-04-06T09:53:55.136Z,58.90
2023-04-06T09:56:30.050Z,57.46
2023-04-06T09:59:11.446Z,57.61
2023-04-06T10:01:44.135Z,58.10
2023-04-06T10:04:29.796Z,58.72
2023-04-06T10:07:04.454Z,59.15
2023-04-06T10:09:37.760Z,57.08
2023-04-06T10:12:11.432Z,57.23
2023-04-06T10:14:45.158Z,58.92
2023-04-06T10:17:17.552Z,58.48
2023-04-06T10:19:55.674Z,58.75
2023-04-06T10:22:34.753Z,57.38
2023-04-06T10:25:07.862Z,55.55
2023-04-06T10:27:40.031Z,56.21
2023-04-06T10:30:12.831Z,57.96
2023-04-06T10:35:19.569Z,56.09
2023-04-06T10:37:54.129Z,56.76
2023-04-06T10:40:28.207Z,57.03
2023-04-06T10:43:15.068Z,56.10
2023-04-06T10:45:56.906Z,56.14
2023-04-06T10:48:41.232Z,55.42
2023-04-06T10:51:14.610Z,55.80
2023-04-06T10:53:49.399Z,56.35
2023-04-06T10:56:29.034Z,56.37
2023-04-06T10:59:01.687Z,56.57
2023-04-06T11:01:33.828Z,56.22
2023-04-06T11:04:06.232Z,56.08
2023-04-06T11:06:38.616Z,56.32
2023-04-06T11:09:11.112Z,56.49
2023-04-06T11:11:43.667Z,55.27
2023-04-06T11:14:15.936Z,55.48
2023-04-06T11:16:51.013Z,55.86
2023-04-06T11:19:23.514Z,56.43
2023-04-06T11:21:56.947Z,55.58
2023-04-06T11:24:31.143Z,55.95
2023-04-06T11:27:03.145Z,56.17
2023-04-06T11:29:37.801Z,56.44
2023-04-06T11:32:09.891Z,56.17
2023-04-06T11:34:42.917Z,55.95
2023-04-06T11:37:16.058Z,55.82
2023-04-06T11:39:51.998Z,55.52
2023-04-06T11:42:28.806Z,56.08
2023-04-06T11:45:03.990Z,56.52
2023-04-06T11:47:37.491Z,56.66
2023-04-06T11:50:15.908Z,56.09
2023-04-06T11:52:48.031Z,56.32
2023-04-06T11:55:22.506Z,56.28
2023-04-06T11:57:54.749Z,56.78
2023-04-06T12:00:27.010Z,56.56
2023-04-06T12:03:00.361Z,56.75
2023-04-06T12:05:33.158Z,56.36
2023-04-06T12:08:05.303Z,56.81
2023-04-06T12:10:37.420Z,56.62
2023-04-06T12:13:09.579Z,55.95
2023-04-06T12:15:41.845Z,56.71
2023-04-06T12:18:17.008Z,57.12
2023-04-06T12:20:49.512Z,57.36
2023-04-06T12:23:22.780Z,57.26
2023-04-06T12:25:55.830Z,57.31
2023-04-06T12:28:28.067Z,57.87
2023-04-06T12:31:00.236Z,57.81
2023-04-06T12:33:32.320Z,58.04
2023-04-06T12:36:04.831Z,58.41
2023-04-06T12:38:39.239Z,58.77
2023-04-06T12:41:11.649Z,59.12
2023-04-06T12:43:44.968Z,59.10
2023-04-06T12:46:17.168Z,59.25
2023-04-06T12:48:49.662Z,59.71
2023-04-06T12:51:21.825Z,60.07
2023-04-06T12:53:54.145Z,60.53
2023-04-06T12:56:27.194Z,60.47
2023-04-06T12:58:59.417Z,60.80
2023-04-06T13:01:31.838Z,61.19
2023-04-06T13:04:04.037Z,61.74
2023-04-06T13:06:36.227Z,62.73
2023-04-06T13:09:08.870Z,62.33
2023-04-06T13:11:42.486Z,64.55
2023-04-06T13:14:15.222Z,64.59
2023-04-06T13:16:47.721Z,63.77
2023-04-06T13:19:20.896Z,65.24
2023-04-06T13:21:52.986Z,65.04
2023-04-06T13:24:25.451Z,65.73
2023-04-06T13:26:58.177Z,65.83
2023-04-06T13:29:30.580Z,66.42
2023-04-06T13:32:02.782Z,66.77
2023-04-06T13:34:35.052Z,66.80
2023-04-06T13:37:07.184Z,67.68
2023-04-06T13:39:39.263Z,68.06
2023-04-06T13:42:11.457Z,67.86
2023-04-06T13:44:43.650Z,68.95
2023-04-06T13:47:32.203Z,68.63
2023-04-06T13:50:06.766Z,68.58
2023-04-06T13:52:38.890Z,69.42
2023-04-06T13:55:11.618Z,69.26
2023-04-06T13:57:43.698Z,69.47
2023-04-06T14:00:22.949Z,70.91
2023-04-06T14:03:00.275Z,70.14
2023-04-06T14:05:35.919Z,70.55
2023-04-06T14:08:07.980Z,70.91
2023-04-06T14:10:43.361Z,71.03
2023-04-06T14:13:16.551Z,71.39
2023-04-06T14:15:48.499Z,71.60
2023-04-06T14:18:20.452Z,72.64
2023-04-06T14:21:01.541Z,73.01
2023-04-06T14:23:34.030Z,73.28
2023-04-06T14:26:07.413Z,73.56
2023-04-06T14:28:40.089Z,73.81
2023-04-06T14:31:16.226Z,74.03
2023-04-06T14:33:48.677Z,73.84
2023-04-06T14:36:20.663Z,74.57
2023-04-06T14:38:53.358Z,74.59
2023-04-06T14:41:27.036Z,74.72
2023-04-06T14:44:00.222Z,74.98
2023-04-06T14:46:32.720Z,74.84
2023-04-06T14:49:04.760Z,74.97
2023-04-06T14:51:37.563Z,75.01
2023-04-06T14:54:09.698Z,75.52
2023-04-06T14:56:41.751Z,75.29
2023-04-06T14:59:13.741Z,76.07
2023-04-06T15:01:45.942Z,76.38
2023-04-06T15:04:18.553Z,75.80
2023-04-06T15:06:50.549Z,75.93
2023-04-06T15:09:22.690Z,76.27
2023-04-06T15:11:54.685Z,76.57
2023-04-06T15:14:26.620Z,77.52
2023-04-06T15:16:58.661Z,77.19
2023-04-06T15:19:30.628Z,77.43
2023-04-06T15:22:02.678Z,77.99
2023-04-06T15:24:34.717Z,78.63
2023-04-06T15:27:07.635Z,78.20
2023-04-06T15:29:39.659Z,78.79
2023-04-06T15:32:11.678Z,78.86
2023-04-06T15:34:45.427Z,78.65
2023-04-06T15:37:17.284Z,78.54
2023-04-06T15:39:50.326Z,78.67
2023-04-06T15:42:22.236Z,79.18
2023-04-06T15:44:54.182Z,79.03
2023-04-06T15:47:26.601Z,79.25
2023-04-06T15:49:58.916Z,79.35
2023-04-06T15:52:31.085Z,80.08
2023-04-06T15:55:04.256Z,79.84
2023-04-06T15:57:40.170Z,80.07
2023-04-06T16:00:14.467Z,80.44
2023-04-06T16:02:46.570Z,81.00
2023-04-06T16:05:19.160Z,80.63
2023-04-06T16:07:54.478Z,80.55
2023-04-06T16:10:26.506Z,81.55
2023-04-06T16:12:58.796Z,81.67
2023-04-06T16:15:30.776Z,81.39
2023-04-06T16:18:04.250Z,81.33
2023-04-06T16:20:37.910Z,81.63
2023-04-06T16:23:10.064Z,81.72
2023-04-06T16:25:42.213Z,82.17
2023-04-06T16:28:14.288Z,82.65
2023-04-06T16:30:49.676Z,82.58
2023-04-06T16:33:23.227Z,82.48
2023-04-06T16:35:55.584Z,83.08
2023-04-06T16:38:34.132Z,82.48
2023-04-06T16:41:06.222Z,82.92
2023-04-06T16:43:38.217Z,82.63
2023-04-06T16:46:10.479Z,82.93
2023-04-06T16:48:42.571Z,82.72
2023-04-06T16:51:14.616Z,83.07
2023-04-06T16:53:48.158Z,83.15
2023-04-06T16:56:20.844Z,83.10
2023-04-06T16:58:53.437Z,83.40
2023-04-06T17:01:29.311Z,83.43
2023-04-06T17:04:02.146Z,83.45
2023-04-06T17:06:34.267Z,83.53
2023-04-06T17:09:06.480Z,83.56
2023-04-06T17:11:46.709Z,83.57
2023-04-06T17:14:19.299Z,83.75
2023-04-06T17:16:51.420Z,83.95
2023-04-06T17:19:23.484Z,83.85
2023-04-06T17:21:55.607Z,84.01
2023-04-06T17:24:28.466Z,84.13
2023-04-06T17:27:00.647Z,84.09
2023-04-06T17:29:37.752Z,84.31
2023-04-06T17:32:10.573Z,84.27
2023-04-06T17:34:45.515Z,84.27
2023-04-06T17:37:18.149Z,84.34
2023-04-06T17:39:50.259Z,84.44
2023-04-06T17:44:55.452Z,84.81
2023-04-06T17:47:32.365Z,84.62
2023-04-06T17:50:05.066Z,84.73
2023-04-06T17:52:37.485Z,85.34
2023-04-06T17:55:10.808Z,85.16
2023-04-06T17:57:43.440Z,85.05
2023-04-06T18:00:24.229Z,85.43
2023-04-06T18:03:03.733Z,85.31
2023-04-06T18:05:39.726Z,85.43
2023-04-06T18:08:12.847Z,85.65
2023-04-06T18:10:49.393Z,85.77
2023-04-06T18:13:22.333Z,85.93
2023-04-06T18:15:54.611Z,85.90
2023-04-06T18:18:27.115Z,85.71
2023-04-06T18:20:59.508Z,86.28
2023-04-06T18:23:31.891Z,86.40
2023-04-06T18:26:04.218Z,86.84
2023-04-06T18:28:36.727Z,86.90
2023-04-06T18:31:09.551Z,87.26
2023-04-06T18:33:41.784Z,87.00
2023-04-06T18:36:14.734Z,87.42
2023-04-06T18:38:51.005Z,87.09
2023-04-06T18:41:23.361Z,87.53
2023-04-06T18:43:56.229Z,87.18
2023-04-06T18:46:28.781Z,87.48
2023-04-06T18:49:01.032Z,88.01
2023-04-06T18:51:33.260Z,87.99
2023-04-06T18:54:05.403Z,87.65
2023-04-06T18:56:38.991Z,88.94
2023-04-06T18:59:12.171Z,88.14
2023-04-06T19:01:46.834Z,88.44
2023-04-06T19:04:19.781Z,88.32
2023-04-06T19:06:53.075Z,88.34
2023-04-06T19:09:28.412Z,89.06
2023-04-06T19:12:00.421Z,89.27
2023-04-06T19:14:34.694Z,89.62
2023-04-06T19:17:07.156Z,89.15
2023-04-06T19:19:39.311Z,90.00
2023-04-06T19:22:13.079Z,89.94
2023-04-06T19:24:45.892Z,91.02
2023-04-06T19:27:23.423Z,90.94
2023-04-06T19:29:55.940Z,90.58
2023-04-06T19:32:28.291Z,90.38
2023-04-06T19:35:02.861Z,90.53
2023-04-06T19:37:35.264Z,90.49
2023-04-06T19:40:10.834Z,90.15
2023-04-06T19:42:43.225Z,90.16
2023-04-06T19:45:15.307Z,90.10
2023-04-06T19:47:47.627Z,90.95
2023-04-06T19:50:19.860Z,91.32
2023-04-06T19:52:53.374Z,90.84
2023-04-06T19:55:25.562Z,90.55
2023-04-06T19:57:57.741Z,90.56
2023-04-06T20:00:30.022Z,90.54
2023-04-06T20:03:02.287Z,91.51
2023-04-06T20:05:34.477Z,91.22
2023-04-06T20:08:06.817Z,91.32
2023-04-06T20:11:03.024Z,91.64
2023-04-06T20:13:35.825Z,91.38
2023-04-06T20:16:10.145Z,91.18
2023-04-06T20:18:42.281Z,91.88
2023-04-06T20:21:14.590Z,91.35
2023-04-06T20:23:47.246Z,92.21
2023-04-06T20:26:19.534Z,91.69
2023-04-06T20:28:51.629Z,91.33
2023-04-06T20:31:26.628Z,91.48
2023-04-06T20:33:58.763Z,91.96
2023-04-06T20:36:34.024Z,91.88
2023-04-06T20:39:06.565Z,92.12
2023-04-06T20:41:38.906Z,91.84
2023-04-06T20:44:11.136Z,92.16
2023-04-06T20:46:45.872Z,92.16
2023-04-06T20:49:18.537Z,92.62
2023-04-06T20:51:51.530Z,92.23
2023-04-06T20:54:23.669Z,92.40
2023-04-06T20:56:59.197Z,92.44
2023-04-06T20:59:31.286Z,92.10
2023-04-06T21:02:03.442Z,92.07
2023-04-06T21:04:36.719Z,92.15
2023-04-06T21:07:09.742Z,92.35
2023-04-06T21:09:42.800Z,92.36
2023-04-06T21:12:14.891Z,93.30
2023-04-06T21:14:47.051Z,93.03
2023-04-06T21:17:19.105Z,92.83
2023-04-06T21:19:51.344Z,93.09
2023-04-06T21:22:23.960Z,92.90
2023-04-06T21:24:56.093Z,92.99
2023-04-06T21:27:28.318Z,93.46
2023-04-06T21:30:00.402Z,93.10
2023-04-06T21:32:32.496Z,93.09
2023-04-06T21:35:05.034Z,92.96
2023-04-06T21:37:37.146Z,92.73
2023-04-06T21:40:11.308Z,93.51
2023-04-06T21:42:43.359Z,93.04
2023-04-06T21:45:15.546Z,93.30
2023-04-06T21:47:49.624Z,93.09
2023-04-06T21:50:22.370Z,94.16
2023-04-06T21:52:54.461Z,93.16
2023-04-06T21:55:26.482Z,93.02
2023-04-06T21:57:58.569Z,93.01
2023-04-06T22:00:31.435Z,93.29
2023-04-06T22:03:03.506Z,93.43
2023-04-06T22:05:37.074Z,93.06
2023-04-06T22:08:15.174Z,93.64
2023-04-06T22:10:50.242Z,94.05
2023-04-06T22:13:22.612Z,95.46
2023-04-06T22:15:54.693Z,94.35
2023-04-06T22:18:27.363Z,93.68
2023-04-06T22:20:59.512Z,93.56
2023-04-06T22:23:32.570Z,94.74
2023-04-06T22:26:04.494Z,93.90
2023-04-06T22:28:39.497Z,93.90
2023-04-06T22:31:11.531Z,94.12
2023-04-06T22:33:43.847Z,94.35
2023-04-06T22:36:15.916Z,94.11
2023-04-06T22:38:49.446Z,94.37
2023-04-06T22:41:24.212Z,94.20
2023-04-06T22:43:56.357Z,94.71
2023-04-06T22:46:28.762Z,94.42
2023-04-06T22:49:01.166Z,94.28
2023-04-06T22:51:33.265Z,94.17
2023-04-06T22:54:09.030Z,94.30
2023-04-06T22:56:41.286Z,94.30
2023-04-06T22:59:13.238Z,94.24
2023-04-06T23:01:45.413Z,94.11
2023-04-06T23:04:17.801Z,94.45
2023-04-06T23:06:50.274Z,94.18
2023-04-06T23:09:22.808Z,94.11
2023-04-06T23:11:54.825Z,94.51
2023-04-06T23:14:26.951Z,94.51
2023-04-06T23:16:59.205Z,94.34
2023-04-06T23:19:31.438Z,94.93
2023-04-06T23:22:03.548Z,94.75
2023-04-06T23:24:35.601Z,94.60
2023-04-06T23:27:07.994Z,94.50
2023-04-06T23:29:40.006Z,94.48
2023-04-06T23:32:12.415Z,94.94
2023-04-06T23:34:44.498Z,94.55
2023-04-06T23:37:16.649Z,94.66
2023-04-06T23:39:49.439Z,94.87
2023-04-06T23:42:21.540Z,94.77
2023-04-06T23:45:01.031Z,94.63
2023-04-06T23:47:33.162Z,94.58
2023-04-06T23:50:05.892Z,94.40
2023-04-06T23:52:37.893Z,94.50
2023-04-06T23:55:11.291Z,94.58
2023-04-06T23:57:43.260Z,94.87
